Time;durP1;ratioP1;P1;durP2;ratioP2;P2;SDS_P1;SDS_P2;PMS_P1;PMS_P2;Temp;Humidity;BMP_temperature;BMP_pressure;BME280_temperature;BME280_humidity;BME280_pressure;Samples;Min_cycle;Max_cycle;Signal;HPM_P1;HPM_P2
2021/08/14 00:02:10;;;;;;;13.23;4.40;;;20.00;99.90;;;;;;5051349;28;21053;-81
2021/08/14 00:04:36;;;;;;;5.27;3.63;;;20.00;99.90;;;;;;5047338;28;20644;-81
2021/08/14 00:07:02;;;;;;;6.30;4.40;;;20.00;99.90;;;;;;5047111;28;20216;-81
2021/08/14 00:09:28;;;;;;;9.13;4.13;;;19.90;99.90;;;;;;5056523;22;20653;-84
2021/08/14 00:11:54;;;;;;;6.47;3.97;;;19.90;99.90;;;;;;5051536;28;20642;-84
2021/08/14 00:14:19;;;;;;;5.60;3.90;;;19.90;99.90;;;;;;5043135;28;20365;-84
2021/08/14 00:16:45;;;;;;;7.00;4.00;;;19.80;99.90;;;;;;5051550;28;20161;-84
2021/08/14 00:19:11;;;;;;;5.40;3.97;;;19.80;99.90;;;;;;5033781;28;20313;-83
2021/08/14 00:21:37;;;;;;;9.67;4.43;;;19.80;99.90;;;;;;5051583;28;20564;-84
2021/08/14 00:24:03;;;;;;;5.97;4.00;;;19.70;99.90;;;;;;5051544;28;21059;-83
2021/08/14 00:26:29;;;;;;;6.33;4.37;;;19.70;99.90;;;;;;5033978;28;20169;-84
2021/08/14 00:28:55;;;;;;;5.33;3.53;;;19.70;99.90;;;;;;5033918;28;20607;-84
2021/08/14 00:31:21;;;;;;;6.17;4.43;;;19.70;99.90;;;;;;5052110;28;20192;-84
2021/08/14 00:33:46;;;;;;;11.70;4.67;;;19.60;99.90;;;;;;5053035;28;20587;-84
2021/08/14 00:36:12;;;;;;;8.93;4.53;;;19.60;99.90;;;;;;5056511;28;20587;-84
2021/08/14 00:38:38;;;;;;;7.73;4.50;;;19.60;99.90;;;;;;5034336;28;20208;-84
2021/08/14 00:41:04;;;;;;;4.40;3.80;;;19.60;99.90;;;;;;5051579;28;20490;-84
2021/08/14 00:43:30;;;;;;;5.10;4.10;;;19.60;99.90;;;;;;5033487;28;20207;-84
2021/08/14 00:45:58;;;;;;;4.80;4.00;;;19.60;99.90;;;;;;5050877;28;20196;-84
2021/08/14 00:48:24;;;;;;;5.80;4.67;;;19.50;99.90;;;;;;5033474;28;20592;-84
2021/08/14 00:50:49;;;;;;;7.30;4.37;;;19.50;99.90;;;;;;5052437;28;20629;-84
2021/08/14 00:53:15;;;;;;;4.73;3.93;;;19.50;99.90;;;;;;5055386;28;20239;-83
2021/08/14 00:55:42;;;;;;;5.60;4.27;;;19.50;99.90;;;;;;5055215;28;20227;-84
2021/08/14 00:58:08;;;;;;;6.53;4.03;;;19.50;99.90;;;;;;5058560;28;20606;-82
2021/08/14 01:00:34;;;;;;;5.73;4.27;;;19.40;99.90;;;;;;5059169;28;20575;-84
2021/08/14 01:03:01;;;;;;;8.37;4.30;;;19.40;99.90;;;;;;5055211;28;20650;-84
2021/08/14 01:05:26;;;;;;;7.00;4.73;;;19.40;99.90;;;;;;5054877;28;20256;-84
2021/08/14 01:07:52;;;;;;;8.40;4.10;;;19.40;99.90;;;;;;5055010;28;21006;-84
2021/08/14 01:10:18;;;;;;;6.70;4.70;;;19.40;99.90;;;;;;5055178;28;20288;-84
2021/08/14 01:12:46;;;;;;;6.50;4.40;;;19.40;99.90;;;;;;5057741;28;20639;-84
2021/08/14 01:15:12;;;;;;;7.27;4.37;;;19.40;99.90;;;;;;5055755;28;20165;-83
2021/08/14 01:17:38;;;;;;;9.03;4.17;;;19.30;99.90;;;;;;5054951;28;20570;-84
2021/08/14 01:20:08;;;;;;;5.57;4.40;;;19.40;99.90;;;;;;5036835;28;20308;-84
2021/08/14 01:22:35;;;;;;;6.83;4.57;;;19.30;99.90;;;;;;5054907;28;21174;-83
2021/08/14 01:25:07;;;;;;;5.60;4.37;;;19.30;99.90;;;;;;5054437;28;20562;-83
2021/08/14 01:27:34;;;;;;;6.33;4.80;;;19.30;99.90;;;;;;5036975;28;20563;-84
2021/08/14 01:30:00;;;;;;;7.27;4.67;;;19.30;99.90;;;;;;5054566;28;20645;-83
2021/08/14 01:32:27;;;;;;;6.43;4.67;;;19.30;99.90;;;;;;5054702;28;21112;-83
2021/08/14 01:34:52;;;;;;;5.47;4.50;;;19.30;99.90;;;;;;5036559;28;20574;-83
2021/08/14 01:37:18;;;;;;;6.70;5.10;;;19.30;99.90;;;;;;5036514;28;20666;-84
2021/08/14 01:39:44;;;;;;;5.00;4.23;;;19.20;99.90;;;;;;5054275;28;20556;-83
2021/08/14 01:42:10;;;;;;;6.33;4.97;;;19.20;99.90;;;;;;5054504;28;20619;-83
2021/08/14 01:44:36;;;;;;;7.37;4.30;;;19.20;99.90;;;;;;5055261;28;20170;-84
2021/08/14 01:47:03;;;;;;;5.33;4.57;;;19.10;99.90;;;;;;5054652;28;20177;-83
2021/08/14 01:49:28;;;;;;;7.90;4.73;;;19.10;99.90;;;;;;5057830;28;20603;-83
2021/08/14 01:51:54;;;;;;;5.93;4.67;;;19.00;99.90;;;;;;5055686;28;20983;-83
2021/08/14 01:54:21;;;;;;;6.13;4.57;;;19.00;99.90;;;;;;5054292;28;20169;-84
2021/08/14 01:56:48;;;;;;;5.30;4.53;;;19.00;99.90;;;;;;5053963;28;20165;-84
2021/08/14 01:59:14;;;;;;;6.53;4.93;;;19.00;99.90;;;;;;5054291;28;21064;-84
2021/08/14 02:01:40;;;;;;;4.77;3.73;;;19.00;99.90;;;;;;5053686;28;20607;-83
2021/08/14 02:04:06;;;;;;;8.10;3.70;;;19.00;99.90;;;;;;5054044;28;20958;-83
2021/08/14 02:06:32;;;;;;;8.40;4.93;;;19.00;99.90;;;;;;5053720;28;20181;-83
2021/08/14 02:08:58;;;;;;;5.73;3.90;;;19.00;99.90;;;;;;5053937;28;20626;-83
2021/08/14 02:11:25;;;;;;;4.83;4.07;;;19.00;99.90;;;;;;5036319;28;20308;-83
2021/08/14 02:13:52;;;;;;;8.00;5.07;;;19.00;99.90;;;;;;5035916;28;20594;-83
2021/08/14 02:16:18;;;;;;;4.67;4.17;;;19.00;99.90;;;;;;5035659;28;21126;-83
2021/08/14 02:18:44;;;;;;;6.67;5.17;;;18.90;99.90;;;;;;5053919;28;21321;-83
2021/08/14 02:21:10;;;;;;;6.80;5.13;;;18.90;99.90;;;;;;5054790;28;20611;-83
2021/08/14 02:23:37;;;;;;;6.30;4.70;;;18.90;99.90;;;;;;5036562;28;20599;-83
2021/08/14 02:26:04;;;;;;;5.53;4.43;;;18.90;99.90;;;;;;5055049;28;20567;-83
2021/08/14 02:28:30;;;;;;;7.20;5.03;;;18.90;99.90;;;;;;5055621;28;20619;-83
2021/08/14 02:30:57;;;;;;;5.33;3.90;;;18.80;99.90;;;;;;5053784;28;20570;-84
2021/08/14 02:33:23;;;;;;;6.00;4.97;;;18.80;99.90;;;;;;5053428;28;20225;-84
2021/08/14 02:35:49;;;;;;;7.80;5.37;;;18.90;99.90;;;;;;5035595;28;20583;-83
2021/08/14 02:38:15;;;;;;;6.30;4.53;;;18.80;99.90;;;;;;5035974;28;21240;-85
2021/08/14 02:40:40;;;;;;;7.33;5.20;;;18.80;99.90;;;;;;5053411;28;20542;-85
2021/08/14 02:43:06;;;;;;;6.73;4.50;;;18.80;99.90;;;;;;5053610;28;20603;-83
2021/08/14 02:45:33;;;;;;;10.00;5.33;;;18.80;99.90;;;;;;5052732;28;20633;-83
2021/08/14 02:48:00;;;;;;;8.30;5.47;;;18.80;99.90;;;;;;5053260;28;20161;-82
2021/08/14 02:50:27;;;;;;;9.33;5.03;;;18.70;99.90;;;;;;5053130;28;20559;-83
2021/08/14 02:52:53;;;;;;;7.97;5.93;;;18.70;99.90;;;;;;5053347;28;20559;-83
2021/08/14 02:55:19;;;;;;;6.40;5.00;;;18.70;99.90;;;;;;5052952;28;20625;-83
2021/08/14 02:57:44;;;;;;;7.70;5.17;;;18.70;99.90;;;;;;5053491;28;20564;-83
2021/08/14 03:00:10;;;;;;;7.43;4.87;;;18.70;99.90;;;;;;5053799;28;20648;-83
2021/08/14 03:02:36;;;;;;;6.10;4.87;;;18.70;99.90;;;;;;5036584;28;20189;-84
2021/08/14 03:05:02;;;;;;;8.03;5.23;;;18.70;99.90;;;;;;5055924;28;21118;-84
2021/08/14 03:07:31;;;;;;;8.67;6.40;;;18.70;99.90;;;;;;5052568;28;20695;-83
2021/08/14 03:09:57;;;;;;;7.80;5.50;;;18.70;99.90;;;;;;5032502;28;20745;-83
2021/08/14 03:12:23;;;;;;;8.13;4.83;;;18.70;99.90;;;;;;5052559;28;20592;-83
2021/08/14 03:14:49;;;;;;;6.73;5.20;;;18.70;99.90;;;;;;5052036;28;20579;-82
2021/08/14 03:17:14;;;;;;;7.23;4.73;;;18.70;99.90;;;;;;5052405;28;20176;-83
2021/08/14 03:19:40;;;;;;;5.93;4.87;;;18.70;99.90;;;;;;5034900;28;20669;-83
2021/08/14 03:22:06;;;;;;;6.80;5.43;;;18.70;99.90;;;;;;5052526;28;20216;-82
2021/08/14 03:24:32;;;;;;;4.97;4.47;;;18.70;99.90;;;;;;5052345;28;20580;-84
2021/08/14 03:26:58;;;;;;;5.83;4.90;;;18.70;99.90;;;;;;5034649;28;20156;-84
2021/08/14 03:29:24;;;;;;;8.87;5.57;;;18.70;99.90;;;;;;5052609;28;20181;-84
2021/08/14 03:31:49;;;;;;;6.80;4.37;;;18.60;99.90;;;;;;5052643;28;20578;-84
2021/08/14 03:34:15;;;;;;;8.20;5.67;;;18.60;99.90;;;;;;5052452;28;20252;-83
2021/08/14 03:36:41;;;;;;;5.93;5.33;;;18.60;99.90;;;;;;5034577;28;20165;-84
2021/08/14 03:39:07;;;;;;;7.00;5.50;;;18.60;99.90;;;;;;5052906;28;20192;-84
2021/08/14 03:41:34;;;;;;;8.30;6.13;;;18.60;99.90;;;;;;5055909;28;20572;-83
2021/08/14 03:44:00;;;;;;;6.73;5.00;;;18.60;99.90;;;;;;5017995;28;20212;-83
2021/08/14 03:46:26;;;;;;;6.90;5.00;;;18.60;99.90;;;;;;5052059;28;21243;-84
2021/08/14 03:48:52;;;;;;;5.43;4.93;;;18.50;99.90;;;;;;5052214;28;20598;-84
2021/08/14 03:51:18;;;;;;;6.40;4.57;;;18.50;99.90;;;;;;5034460;28;20339;-83
2021/08/14 03:53:43;;;;;;;6.93;5.63;;;18.50;99.90;;;;;;5052286;28;20568;-84
2021/08/14 03:56:09;;;;;;;7.87;5.13;;;18.50;99.90;;;;;;5051740;28;20173;-84
2021/08/14 03:58:35;;;;;;;5.60;4.40;;;18.50;99.90;;;;;;5051914;28;20201;-85
2021/08/14 04:01:04;;;;;;;5.73;4.37;;;18.50;99.90;;;;;;5034334;28;20244;-84
2021/08/14 04:03:30;;;;;;;6.13;4.90;;;18.50;99.90;;;;;;5051967;28;20216;-84
2021/08/14 04:05:56;;;;;;;7.53;6.70;;;18.50;99.90;;;;;;5051668;28;20559;-84
2021/08/14 04:08:22;;;;;;;5.20;4.70;;;18.50;99.90;;;;;;5034179;28;20705;-84
2021/08/14 04:10:48;;;;;;;5.37;4.70;;;18.40;99.90;;;;;;5051768;28;20603;-85
2021/08/14 04:13:14;;;;;;;7.57;4.87;;;18.40;99.90;;;;;;5051827;28;20594;-85
2021/08/14 04:15:39;;;;;;;7.67;4.87;;;18.40;99.90;;;;;;5033678;28;20571;-84
2021/08/14 04:18:05;;;;;;;6.97;4.30;;;18.50;99.90;;;;;;5056762;28;20719;-83
2021/08/14 04:20:31;;;;;;;5.93;5.10;;;18.50;99.90;;;;;;5051899;28;20184;-83
2021/08/14 04:22:57;;;;;;;5.97;5.33;;;18.50;99.90;;;;;;5051611;28;20532;-84
2021/08/14 04:25:22;;;;;;;7.33;4.90;;;18.40;99.90;;;;;;5051759;28;20247;-83
2021/08/14 04:27:48;;;;;;;11.10;5.40;;;18.40;99.90;;;;;;5052120;28;20200;-83
2021/08/14 04:30:14;;;;;;;6.20;4.63;;;18.40;99.90;;;;;;5051624;28;20595;-83
2021/08/14 04:32:40;;;;;;;7.93;5.07;;;18.50;99.90;;;;;;5051259;28;20181;-82
2021/08/14 04:35:09;;;;;;;6.73;6.00;;;18.50;99.90;;;;;;5033738;28;20185;-83
2021/08/14 04:37:35;;;;;;;7.27;4.40;;;18.50;99.90;;;;;;5051320;28;21142;-82
2021/08/14 04:40:03;;;;;;;6.03;5.23;;;18.50;99.90;;;;;;5051545;28;20592;-83
2021/08/14 04:42:28;;;;;;;8.67;5.30;;;18.50;99.90;;;;;;5033334;28;20614;-82
2021/08/14 04:44:54;;;;;;;6.33;5.27;;;18.50;99.90;;;;;;5033630;28;20577;-82
2021/08/14 04:47:20;;;;;;;6.83;4.43;;;18.60;99.90;;;;;;5051398;28;20168;-83
2021/08/14 04:49:46;;;;;;;7.23;5.13;;;18.60;99.90;;;;;;5051618;28;20184;-80
2021/08/14 04:52:12;;;;;;;5.83;5.20;;;18.60;99.90;;;;;;5052142;28;20617;-82
2021/08/14 04:54:37;;;;;;;5.00;4.30;;;18.60;99.90;;;;;;5054877;28;20180;-83
2021/08/14 04:57:03;;;;;;;6.53;5.20;;;18.70;99.90;;;;;;5051387;28;20223;-82
2021/08/14 04:59:29;;;;;;;5.17;4.50;;;18.70;99.90;;;;;;5051240;28;20280;-82
2021/08/14 05:01:55;;;;;;;6.07;5.20;;;18.70;99.90;;;;;;5051189;28;20614;-83
2021/08/14 05:04:23;;;;;;;6.43;4.50;;;18.70;99.90;;;;;;5051158;28;20207;-83
2021/08/14 05:06:49;;;;;;;7.53;5.40;;;18.70;99.90;;;;;;5047432;28;20581;-84
2021/08/14 05:09:16;;;;;;;6.83;4.87;;;18.70;99.90;;;;;;5018707;28;20627;-84
2021/08/14 05:11:42;;;;;;;7.20;4.80;;;18.80;99.90;;;;;;5033188;28;20646;-83
2021/08/14 05:14:08;;;;;;;5.67;4.60;;;18.80;99.90;;;;;;5047790;28;20595;-83
2021/08/14 05:16:36;;;;;;;5.93;4.70;;;18.80;99.90;;;;;;5041654;28;20592;-82
2021/08/14 05:19:03;;;;;;;5.30;4.63;;;18.80;99.90;;;;;;5050890;28;20978;-84
2021/08/14 05:21:29;;;;;;;7.30;4.77;;;18.90;99.90;;;;;;5019262;28;20700;-84
2021/08/14 05:23:56;;;;;;;6.10;5.47;;;18.90;99.90;;;;;;5029575;28;20854;-82
2021/08/14 05:26:22;;;;;;;6.63;4.47;;;19.00;99.90;;;;;;5049846;28;20582;-83
2021/08/14 05:28:48;;;;;;;6.40;5.70;;;19.00;99.90;;;;;;5047724;28;20648;-83
2021/08/14 05:31:14;;;;;;;8.70;5.30;;;19.10;99.90;;;;;;5052314;28;20580;-83
2021/08/14 05:33:40;;;;;;;9.53;5.37;;;19.10;99.90;;;;;;5047087;28;20177;-84
2021/08/14 05:36:08;;;;;;;6.77;4.47;;;19.30;99.90;;;;;;5038954;28;20187;-83
2021/08/14 05:38:35;;;;;;;6.90;4.47;;;19.30;99.90;;;;;;5055070;28;20207;-83
2021/08/14 05:41:01;;;;;;;5.13;4.60;;;19.40;99.90;;;;;;5056405;28;20909;-83
2021/08/14 05:43:26;;;;;;;7.57;5.40;;;19.50;99.90;;;;;;5055873;28;20625;-84
2021/08/14 05:45:52;;;;;;;7.80;5.60;;;19.50;99.90;;;;;;5057732;28;20564;-84
2021/08/14 05:48:18;;;;;;;5.93;4.43;;;19.70;99.90;;;;;;5043530;28;20259;-82
2021/08/14 05:50:45;;;;;;;6.10;4.80;;;19.70;99.90;;;;;;5062805;28;20196;-82
2021/08/14 05:53:11;;;;;;;5.43;4.87;;;19.80;99.90;;;;;;5064834;28;20615;-82
2021/08/14 05:55:36;;;;;;;7.30;5.43;;;20.00;99.90;;;;;;5061562;28;20568;-83
2021/08/14 05:58:02;;;;;;;5.80;4.53;;;20.00;99.90;;;;;;5067041;28;20177;-82
2021/08/14 06:00:28;;;;;;;6.70;4.70;;;20.10;99.90;;;;;;5068812;28;20227;-82
2021/08/14 06:02:53;;;;;;;6.10;4.53;;;20.20;99.90;;;;;;5068050;28;20196;-83
2021/08/14 06:05:19;;;;;;;7.00;4.30;;;20.30;99.90;;;;;;5065083;28;20173;-81
2021/08/14 06:07:48;;;;;;;7.40;5.37;;;20.50;99.90;;;;;;5066430;28;20171;-81
2021/08/14 06:10:16;;;;;;;5.97;4.90;;;20.60;99.90;;;;;;5059605;28;20228;-79
2021/08/14 06:12:42;;;;;;;9.00;4.13;;;20.90;99.90;;;;;;5036244;28;20582;-79
2021/08/14 06:15:08;;;;;;;6.23;3.63;;;21.00;99.90;;;;;;5035789;28;20568;-79
2021/08/14 06:17:34;;;;;;;5.67;4.20;;;21.20;99.90;;;;;;5053785;28;20621;-79
2021/08/14 06:20:00;;;;;;;5.07;4.50;;;21.30;99.90;;;;;;5053562;28;20595;-79
2021/08/14 06:22:26;;;;;;;6.20;4.00;;;21.50;99.90;;;;;;5036224;28;20213;-79
2021/08/14 06:24:53;;;;;;;4.50;3.90;;;21.60;99.90;;;;;;5053413;28;21202;-79
2021/08/14 06:27:20;;;;;;;5.27;4.30;;;21.90;99.90;;;;;;5053734;28;20522;-79
2021/08/14 06:29:45;;;;;;;5.00;3.83;;;22.50;99.90;;;;;;5053500;28;20588;-79
2021/08/14 06:32:11;;;;;;;4.50;3.73;;;23.20;99.90;;;;;;5053876;28;20574;-78
2021/08/14 06:34:37;;;;;;;3.30;2.80;;;24.10;99.90;;;;;;5019104;28;20937;-79
2021/08/14 06:37:04;;;;;;;5.20;2.77;;;25.10;99.90;;;;;;5035814;28;20169;-79
2021/08/14 06:39:30;;;;;;;4.90;3.50;;;26.20;99.90;;;;;;5054094;28;20961;-79
2021/08/14 06:41:55;;;;;;;5.40;3.60;;;27.30;99.90;;;;;;5020007;28;20571;-76
2021/08/14 06:44:21;;;;;;;5.83;3.53;;;28.40;99.90;;;;;;5055804;28;20169;-78
2021/08/14 06:46:47;;;;;;;4.60;3.17;;;29.40;99.90;;;;;;5053206;28;20686;-79
2021/08/14 06:49:12;;;;;;;3.80;2.90;;;30.40;99.90;;;;;;5052364;28;20189;-78
2021/08/14 06:51:39;;;;;;;6.80;3.03;;;31.30;99.90;;;;;;5053395;28;20170;-78
2021/08/14 06:54:05;;;;;;;5.20;3.13;;;32.10;99.90;;;;;;5053406;28;20189;-77
2021/08/14 06:56:34;;;;;;;5.20;3.10;;;32.90;99.90;;;;;;5035941;28;20592;-77
2021/08/14 06:59:00;;;;;;;7.27;4.10;;;33.50;99.90;;;;;;5041927;28;20619;-77
2021/08/14 07:01:26;;;;;;;3.87;2.57;;;34.00;99.90;;;;;;5015316;28;20572;-78
2021/08/14 07:03:52;;;;;;;3.70;2.83;;;34.60;99.90;;;;;;5014967;28;20212;-77
2021/08/14 07:06:19;;;;;;;5.80;2.93;;;35.20;99.90;;;;;;4998321;28;20911;-78
2021/08/14 07:08:48;;;;;;;7.73;3.37;;;35.70;99.70;;;;;;5014712;28;20624;-77
2021/08/14 07:11:15;;;;;;;3.20;2.03;;;36.20;98.30;;;;;;4998811;28;21120;-78
2021/08/14 07:13:42;;;;;;;5.03;3.10;;;36.70;96.50;;;;;;5015027;28;20584;-77
2021/08/14 07:16:08;;;;;;;4.50;2.37;;;37.10;94.40;;;;;;5032590;28;20565;-79
2021/08/14 07:18:34;;;;;;;2.77;2.20;;;37.50;92.70;;;;;;5014955;28;20615;-78
2021/08/14 07:21:00;;;;;;;4.87;2.73;;;37.90;91.20;;;;;;5002983;28;20619;-79
2021/08/14 07:23:25;;;;;;;2.77;1.80;;;38.20;87.90;;;;;;5032598;28;20204;-79
2021/08/14 07:25:52;;;;;;;3.57;1.70;;;38.60;85.10;;;;;;4998270;28;20178;-77
2021/08/14 07:28:19;;;;;;;2.70;1.60;;;38.90;82.50;;;;;;5032409;28;20190;-79
2021/08/14 07:30:46;;;;;;;6.53;2.60;;;39.20;79.30;;;;;;5015151;28;20572;-79
2021/08/14 07:33:13;;;;;;;5.80;2.50;;;39.60;77.00;;;;;;5032263;28;20954;-79
2021/08/14 07:35:39;;;;;;;4.07;2.33;;;39.80;73.90;;;;;;5032175;28;20564;-79
2021/08/14 07:38:05;;;;;;;3.57;2.00;;;40.10;71.90;;;;;;4998392;28;20676;-80
2021/08/14 07:40:31;;;;;;;3.00;1.90;;;40.30;69.90;;;;;;5013375;28;20185;-79
2021/08/14 07:43:03;;;;;;;5.90;2.10;;;40.50;67.70;;;;;;5025840;28;20262;-80
2021/08/14 07:45:29;;;;;;;5.20;2.43;;;40.80;64.90;;;;;;5051669;28;20949;-80
2021/08/14 07:47:55;;;;;;;4.33;2.60;;;41.00;63.90;;;;;;5034261;28;20571;-81
2021/08/14 07:50:21;;;;;;;4.50;2.00;;;41.30;62.40;;;;;;5051659;28;21134;-80
2021/08/14 07:52:48;;;;;;;3.80;2.63;;;41.40;60.70;;;;;;5052008;28;20566;-80
2021/08/14 07:55:14;;;;;;;4.83;2.03;;;41.60;58.80;;;;;;5051515;28;20629;-80
2021/08/14 07:57:41;;;;;;;3.53;2.07;;;41.70;57.90;;;;;;5052594;28;20723;-79
2021/08/14 08:00:09;;;;;;;3.10;1.93;;;41.80;56.80;;;;;;5053829;28;20581;-80
2021/08/14 08:02:37;;;;;;;2.70;1.63;;;42.00;56.00;;;;;;5034594;28;20727;-79
2021/08/14 08:05:04;;;;;;;4.33;2.20;;;42.30;55.30;;;;;;5051404;28;20607;-79
2021/08/14 08:07:31;;;;;;;2.90;2.07;;;42.40;54.20;;;;;;5051582;28;20572;-79
2021/08/14 08:09:57;;;;;;;3.03;1.90;;;42.50;53.10;;;;;;5051453;28;20993;-79
2021/08/14 08:12:23;;;;;;;6.57;2.20;;;42.40;52.40;;;;;;5051463;28;20571;-80
2021/08/14 08:14:49;;;;;;;2.40;2.20;;;42.50;51.70;;;;;;5050965;28;20587;-80
2021/08/14 08:17:15;;;;;;;3.60;1.90;;;42.50;51.30;;;;;;5033079;28;20658;-79
2021/08/14 08:19:41;;;;;;;3.23;1.77;;;42.70;50.80;;;;;;5033774;28;20694;-79
2021/08/14 08:22:09;;;;;;;3.23;2.30;;;42.80;50.70;;;;;;5017095;28;20168;-78
2021/08/14 08:24:35;;;;;;;3.60;1.93;;;42.90;49.50;;;;;;5033304;28;20617;-79
2021/08/14 08:27:00;;;;;;;2.83;1.60;;;42.90;49.00;;;;;;5051261;28;20576;-79
2021/08/14 08:29:26;;;;;;;2.80;1.40;;;42.90;48.40;;;;;;5033490;28;20521;-79
2021/08/14 08:31:52;;;;;;;4.07;1.80;;;43.00;47.80;;;;;;5033139;28;20528;-79
2021/08/14 08:34:23;;;;;;;2.73;1.10;;;43.00;47.20;;;;;;5056286;28;20196;-79
2021/08/14 08:36:53;;;;;;;3.13;1.40;;;43.00;46.90;;;;;;5033156;28;20172;-79
2021/08/14 08:39:19;;;;;;;3.50;1.70;;;43.00;46.10;;;;;;5051164;28;20936;-79
2021/08/14 08:41:45;;;;;;;2.97;1.70;;;43.00;46.10;;;;;;5050979;28;20569;-80
2021/08/14 08:44:12;;;;;;;3.33;1.63;;;43.10;45.00;;;;;;5033307;28;20563;-78
2021/08/14 08:46:39;;;;;;;4.97;1.83;;;43.20;44.80;;;;;;5033333;28;20227;-78
2021/08/14 08:49:05;;;;;;;2.63;1.80;;;43.20;44.70;;;;;;5050902;28;20695;-78
2021/08/14 08:51:31;;;;;;;3.33;1.73;;;43.20;44.80;;;;;;5033243;28;20560;-78
2021/08/14 08:53:58;;;;;;;3.50;1.37;;;43.30;44.80;;;;;;5033502;28;20197;-80
2021/08/14 08:56:24;;;;;;;5.07;1.90;;;43.40;44.10;;;;;;5016415;28;20555;-79
2021/08/14 08:58:50;;;;;;;3.53;1.63;;;43.40;42.80;;;;;;5016537;28;20596;-78
2021/08/14 09:01:15;;;;;;;2.83;1.30;;;43.40;43.00;;;;;;5033157;28;20169;-78
2021/08/14 09:03:41;;;;;;;3.10;1.40;;;43.40;42.10;;;;;;5051055;28;20180;-79
2021/08/14 09:06:07;;;;;;;2.27;1.13;;;43.50;42.00;;;;;;5028989;28;20173;-78
2021/08/14 09:08:33;;;;;;;3.13;1.30;;;43.50;42.00;;;;;;5050645;28;20212;-78
2021/08/14 09:11:15;;;;;;;4.17;1.60;;;43.70;41.80;;;;;;5053290;28;20944;-78
2021/08/14 09:14:02;;;;;;;3.37;1.53;;;43.80;42.30;;;;;;5049409;28;20742;-78
2021/08/14 09:16:28;;;;;;;2.27;1.30;;;44.00;41.00;;;;;;5034874;28;20560;-78
2021/08/14 09:18:56;;;;;;;2.70;1.60;;;44.00;40.40;;;;;;5010963;28;20649;-78
2021/08/14 09:21:48;;;;;;;5.20;1.57;;;44.10;40.00;;;;;;5015417;28;20228;-78
2021/08/14 09:24:43;;;;;;;3.60;1.47;;;44.20;40.10;;;;;;4979101;28;20996;-78
2021/08/14 09:27:16;;;;;;;2.37;1.30;;;44.10;40.20;;;;;;4967760;28;20584;-78
2021/08/14 09:29:46;;;;;;;2.57;1.10;;;44.00;39.50;;;;;;5014870;28;20601;-78
2021/08/14 09:32:14;;;;;;;3.93;1.40;;;44.00;39.80;;;;;;5015064;28;20572;-78
2021/08/14 09:34:47;;;;;;;4.17;1.53;;;44.10;39.70;;;;;;4997191;28;20624;-78
2021/08/14 09:37:17;;;;;;;3.50;1.80;;;44.10;38.90;;;;;;5015072;28;20971;-80
2021/08/14 09:40:01;;;;;;;2.63;1.40;;;44.20;38.70;;;;;;5013598;28;20597;-79
2021/08/14 09:42:27;;;;;;;3.67;2.33;;;44.30;39.30;;;;;;5015240;28;20624;-79
2021/08/14 09:45:13;;;;;;;3.93;1.83;;;44.30;38.40;;;;;;4997448;28;20565;-79
2021/08/14 09:47:40;;;;;;;5.97;1.80;;;44.40;38.10;;;;;;5000002;28;21169;-78
2021/08/14 09:50:06;;;;;;;5.03;1.80;;;44.40;37.60;;;;;;5014990;28;21213;-78
2021/08/14 09:52:32;;;;;;;5.47;2.73;;;44.40;37.70;;;;;;5014750;28;20663;-78
2021/08/14 09:54:58;;;;;;;2.57;1.70;;;44.40;37.60;;;;;;5014436;28;21116;-79
2021/08/14 09:57:24;;;;;;;5.23;2.07;;;44.40;37.70;;;;;;5013476;28;20558;-78
2021/08/14 09:59:51;;;;;;;7.03;1.67;;;44.40;37.90;;;;;;4996967;28;20597;-78
2021/08/14 10:02:32;;;;;;;5.27;2.13;;;44.40;37.70;;;;;;5014718;28;20573;-78
2021/08/14 10:04:59;;;;;;;4.63;1.83;;;44.60;37.30;;;;;;5014354;28;20568;-79
2021/08/14 10:07:26;;;;;;;3.63;1.97;;;44.50;37.20;;;;;;5014436;28;20569;-79
2021/08/14 10:09:53;;;;;;;6.07;2.03;;;44.40;36.80;;;;;;4996744;28;20683;-78
2021/08/14 10:12:20;;;;;;;3.13;2.10;;;44.40;37.00;;;;;;4996785;28;20723;-79
2021/08/14 10:14:48;;;;;;;3.17;1.67;;;44.40;37.30;;;;;;5014307;28;20986;-78
2021/08/14 10:17:21;;;;;;;5.30;2.20;;;44.30;36.70;;;;;;4996726;28;20928;-78
2021/08/14 10:19:48;;;;;;;3.50;1.90;;;44.30;37.20;;;;;;5014471;28;20612;-79
2021/08/14 10:22:15;;;;;;;4.90;1.70;;;44.30;36.90;;;;;;5013039;28;20929;-78
2021/08/14 10:24:43;;;;;;;3.00;1.50;;;44.30;36.50;;;;;;5020719;28;20573;-77
2021/08/14 10:27:16;;;;;;;5.53;1.77;;;44.30;36.70;;;;;;5012611;28;20894;-77
2021/08/14 10:29:53;;;;;;;3.20;1.70;;;44.30;36.60;;;;;;5013739;28;20708;-77
2021/08/14 10:32:31;;;;;;;4.60;2.23;;;44.30;36.20;;;;;;5012398;28;20728;-78
2021/08/14 10:35:12;;;;;;;2.93;1.80;;;44.20;35.50;;;;;;5013560;28;20916;-78
2021/08/14 10:37:39;;;;;;;2.70;1.87;;;44.10;36.40;;;;;;5012485;28;20924;-78
2021/08/14 10:40:06;;;;;;;3.83;2.20;;;43.90;36.00;;;;;;5013503;28;20604;-78
2021/08/14 10:42:54;;;;;;;3.53;1.97;;;43.70;35.30;;;;;;5012355;28;20584;-77
2021/08/14 10:45:19;;;;;;;5.53;1.90;;;43.40;35.30;;;;;;5013249;28;20569;-77
2021/08/14 10:47:50;;;;;;;4.57;2.40;;;43.10;35.70;;;;;;5013416;28;20573;-77
2021/08/14 10:50:31;;;;;;;5.57;1.80;;;42.80;35.30;;;;;;5013395;28;20190;-78
2021/08/14 10:53:12;;;;;;;3.47;1.77;;;42.50;35.70;;;;;;5013366;28;20627;-77
2021/08/14 10:55:48;;;;;;;3.70;1.50;;;42.10;35.30;;;;;;5013055;28;20624;-78
2021/08/14 10:58:23;;;;;;;5.07;2.27;;;41.70;35.60;;;;;;5011857;28;20716;-79
2021/08/14 11:01:13;;;;;;;4.57;3.10;;;41.40;36.10;;;;;;4999435;28;20565;-78
2021/08/14 11:03:39;;;;;;;5.80;3.33;;;41.20;36.10;;;;;;4987966;28;20581;-78
2021/08/14 11:06:27;;;;;;;3.70;2.27;;;40.90;36.20;;;;;;5012978;28;20562;-78
2021/08/14 11:09:15;;;;;;;5.43;2.97;;;40.60;36.10;;;;;;5011819;28;20715;-78
2021/08/14 11:11:40;;;;;;;3.30;2.20;;;40.40;36.10;;;;;;5014663;28;20628;-78
2021/08/14 11:14:12;;;;;;;4.90;2.10;;;40.20;36.20;;;;;;4995360;28;20629;-78
2021/08/14 11:17:13;;;;;;;5.07;2.30;;;39.90;36.20;;;;;;4995355;28;20177;-78
2021/08/14 11:19:58;;;;;;;3.37;1.60;;;39.80;36.30;;;;;;4936460;29;20616;-78
2021/08/14 11:22:25;;;;;;;3.97;1.50;;;39.70;36.10;;;;;;4992307;28;20585;-78
2021/08/14 11:24:53;;;;;;;2.50;1.20;;;39.50;36.10;;;;;;4995106;28;20588;-78
2021/08/14 11:27:30;;;;;;;4.33;1.57;;;39.30;35.90;;;;;;5012887;28;21168;-78
2021/08/14 11:30:09;;;;;;;5.10;1.50;;;39.00;35.80;;;;;;4995981;28;20597;-78
2021/08/14 11:32:36;;;;;;;3.50;1.50;;;38.70;36.20;;;;;;5011515;28;21204;-78
2021/08/14 11:35:04;;;;;;;3.90;1.80;;;38.50;36.30;;;;;;4994582;28;21143;-78
2021/08/14 11:37:30;;;;;;;6.23;1.70;;;38.20;35.80;;;;;;4998777;28;20574;-78
2021/08/14 11:40:03;;;;;;;2.93;1.50;;;38.00;36.20;;;;;;4979366;28;20638;-78
2021/08/14 11:42:31;;;;;;;3.40;1.50;;;37.70;36.20;;;;;;4978666;28;20585;-78
2021/08/14 11:44:59;;;;;;;2.63;1.70;;;37.40;36.20;;;;;;4978754;28;20923;-79
2021/08/14 11:47:31;;;;;;;2.43;1.70;;;37.20;36.80;;;;;;4994931;28;20601;-79
2021/08/14 11:50:00;;;;;;;6.50;1.80;;;37.20;37.00;;;;;;4979217;28;21160;-79
2021/08/14 11:52:27;;;;;;;7.33;2.97;;;37.20;37.40;;;;;;5012528;28;20620;-78
2021/08/14 11:54:57;;;;;;;5.47;2.30;;;37.20;37.50;;;;;;4994608;28;21187;-79
2021/08/14 11:57:28;;;;;;;4.20;2.13;;;37.20;37.40;;;;;;5011146;28;20596;-79
2021/08/14 11:59:55;;;;;;;3.80;2.00;;;37.20;37.40;;;;;;4978330;28;20704;-79
2021/08/14 12:02:25;;;;;;;4.60;2.50;;;37.20;37.40;;;;;;5012442;28;20569;-79
2021/08/14 12:04:55;;;;;;;3.03;2.03;;;37.30;37.20;;;;;;4994499;28;20578;-78
2021/08/14 12:07:22;;;;;;;3.50;1.97;;;37.30;37.00;;;;;;5012387;28;20715;-79
2021/08/14 12:09:49;;;;;;;3.27;2.60;;;37.30;37.00;;;;;;5012784;28;20735;-77
2021/08/14 12:12:20;;;;;;;6.43;4.77;;;37.20;37.20;;;;;;5012804;28;20956;-77
2021/08/14 12:14:46;;;;;;;8.80;8.00;;;37.20;36.90;;;;;;4982640;28;20573;-77
2021/08/14 12:17:12;;;;;;;5.37;4.20;;;37.10;36.90;;;;;;4994538;28;20640;-76
2021/08/14 12:19:53;;;;;;;4.67;2.20;;;37.00;36.90;;;;;;4994265;28;20601;-76
2021/08/14 12:22:19;;;;;;;3.40;1.70;;;36.90;36.90;;;;;;4978349;28;20662;-75
2021/08/14 12:24:48;;;;;;;2.17;1.43;;;36.80;36.90;;;;;;5011717;28;20561;-76
2021/08/14 12:27:32;;;;;;;3.40;1.77;;;36.80;37.10;;;;;;4994280;28;20669;-76
2021/08/14 12:30:20;;;;;;;2.40;1.40;;;36.60;36.80;;;;;;5011858;28;20951;-76
2021/08/14 12:32:47;;;;;;;4.10;2.37;;;36.20;36.70;;;;;;5011954;28;20620;-76
2021/08/14 12:35:22;;;;;;;2.10;1.63;;;36.10;36.70;;;;;;4977326;28;20577;-76
2021/08/14 12:37:50;;;;;;;4.43;1.90;;;35.80;36.70;;;;;;4994343;28;21725;-76
2021/08/14 12:40:21;;;;;;;3.17;1.97;;;35.60;36.90;;;;;;4993823;28;20608;-76
2021/08/14 12:42:47;;;;;;;4.50;2.90;;;35.40;37.10;;;;;;4994286;28;20573;-76
2021/08/14 12:45:16;;;;;;;2.90;1.60;;;35.10;37.30;;;;;;5011456;28;20597;-77
2021/08/14 12:47:44;;;;;;;3.30;1.90;;;34.90;37.50;;;;;;5014132;28;20945;-78
2021/08/14 12:50:15;;;;;;;4.27;2.47;;;34.60;37.30;;;;;;4998465;28;20635;-77